Ana Sayfa
METAR-TAF:

METAR-TAF

Havaalanları :

Ipiales, Kolombiya

Enlem: 00-49N, Boylam: 077-38W, yükseklik: 2961 m

Güncel hava durumu gözlemi

Rapor saat 23:00 UTC de 11 saat ve 40 dakika önce yapıldı.
Rüzgar doğudan 4 kt
Sıcaklık 11°C
Nem 87%
Basınç 1027 hPa
Görüş mesafesi 10 km veya daha fazla
1600 ft yükseklikte çok bulutlu

METAR: SKIP 162300Z 09004KT 9999 OVC016 11/09 A3032

Saat: 05:40 (10:40 UTC)


TAF: eksik

4.000'den fazla havaalanı için hava durumu gözlemleri ve tahminleri (METAR ve TAF raporları).

Kullanılabilir istasyonlar harita üzerinde sarı ve kırmızı noktalarla gösterilir.

İstasyonun adını görmek için fareyi noktanın üzerinde gezdirin.

Sonrasında hava gözlem ve tahminlerini görmek için tıklayın.

Haritayı değiştirmek için: yaklaştırmak için siyah artı işaretli yeşil düğmeye ve uzaklaştırmak için de eksi işaretli düğmeye hızla tıklayın; bitişik haritalar için yeşil okları kullanın.


METAR-TAF: